sensor_id;sensor_type;location;lat;lon;timestamp;P1;durP1;ratioP1;P2;durP2;ratioP2
21743;SDS011;11034;48.556;9.342;2023-02-28T05:47:33;13.88;;;7.82;;
21743;SDS011;11034;48.556;9.342;2023-02-28T05:50:01;13.23;;;7.35;;
21743;SDS011;11034;48.556;9.342;2023-02-28T05:52:29;12.40;;;7.25;;
21743;SDS011;11034;48.556;9.342;2023-02-28T05:54:59;12.30;;;6.68;;
21743;SDS011;11034;48.556;9.342;2023-02-28T05:57:27;14.13;;;7.15;;
21743;SDS011;11034;48.556;9.342;2023-02-28T05:59:55;13.00;;;7.25;;
21743;SDS011;11034;48.556;9.342;2023-02-28T06:02:23;13.75;;;7.13;;
21743;SDS011;11034;48.556;9.342;2023-02-28T06:04:53;13.52;;;7.35;;
21743;SDS011;11034;48.556;9.342;2023-02-28T06:07:21;11.57;;;7.40;;
21743;SDS011;11034;48.556;9.342;2023-02-28T06:09:49;9.77;;;6.53;;
21743;SDS011;11034;48.556;9.342;2023-02-28T06:12:17;10.40;;;7.00;;
21743;SDS011;11034;48.556;9.342;2023-02-28T06:14:45;13.93;;;7.72;;
21743;SDS011;11034;48.556;9.342;2023-02-28T06:17:13;11.32;;;6.93;;
21743;SDS011;11034;48.556;9.342;2023-02-28T06:19:41;14.55;;;7.93;;
21743;SDS011;11034;48.556;9.342;2023-02-28T06:22:10;14.55;;;7.80;;
21743;SDS011;11034;48.556;9.342;2023-02-28T06:24:38;15.50;;;8.40;;
21743;SDS011;11034;48.556;9.342;2023-02-28T06:27:06;13.45;;;8.25;;
21743;SDS011;11034;48.556;9.342;2023-02-28T06:32:34;13.77;;;7.70;;
21743;SDS011;11034;48.556;9.342;2023-02-28T06:35:17;14.07;;;8.20;;
21743;SDS011;11034;48.556;9.342;2023-02-28T06:37:46;13.52;;;7.68;;
21743;SDS011;11034;48.556;9.342;2023-02-28T06:40:14;13.73;;;8.45;;
21743;SDS011;11034;48.556;9.342;2023-02-28T06:42:43;13.75;;;8.02;;
21743;SDS011;11034;48.556;9.342;2023-02-28T06:45:11;14.20;;;8.05;;
21743;SDS011;11034;48.556;9.342;2023-02-28T06:47:40;13.13;;;8.00;;
21743;SDS011;11034;48.556;9.342;2023-02-28T06:50:10;12.75;;;7.47;;
21743;SDS011;11034;48.556;9.342;2023-02-28T06:52:39;13.20;;;7.65;;
21743;SDS011;11034;48.556;9.342;2023-02-28T06:55:09;16.55;;;8.30;;
21743;SDS011;11034;48.556;9.342;2023-02-28T06:57:37;17.30;;;8.25;;
21743;SDS011;11034;48.556;9.342;2023-02-28T07:00:06;13.50;;;8.52;;
21743;SDS011;11034;48.556;9.342;2023-02-28T07:02:37;15.60;;;9.00;;
21743;SDS011;11034;48.556;9.342;2023-02-28T07:05:05;16.92;;;8.77;;
21743;SDS011;11034;48.556;9.342;2023-02-28T07:07:34;18.70;;;9.13;;
21743;SDS011;11034;48.556;9.342;2023-02-28T07:10:03;16.35;;;9.35;;
21743;SDS011;11034;48.556;9.342;2023-02-28T07:12:33;15.23;;;9.18;;
21743;SDS011;11034;48.556;9.342;2023-02-28T07:15:01;13.95;;;8.90;;
21743;SDS011;11034;48.556;9.342;2023-02-28T07:17:29;16.10;;;9.18;;
21743;SDS011;11034;48.556;9.342;2023-02-28T07:19:57;17.77;;;9.10;;
21743;SDS011;11034;48.556;9.342;2023-02-28T07:22:25;14.20;;;8.70;;
21743;SDS011;11034;48.556;9.342;2023-02-28T07:24:54;17.05;;;9.95;;
21743;SDS011;11034;48.556;9.342;2023-02-28T07:27:23;13.27;;;8.57;;
21743;SDS011;11034;48.556;9.342;2023-02-28T07:29:53;16.77;;;9.52;;
21743;SDS011;11034;48.556;9.342;2023-02-28T07:32:21;18.55;;;9.45;;
21743;SDS011;11034;48.556;9.342;2023-02-28T07:34:50;16.85;;;9.75;;
21743;SDS011;11034;48.556;9.342;2023-02-28T07:37:17;15.32;;;8.82;;
21743;SDS011;11034;48.556;9.342;2023-02-28T07:39:45;16.08;;;9.57;;
21743;SDS011;11034;48.556;9.342;2023-02-28T07:42:14;18.30;;;9.48;;
21743;SDS011;11034;48.556;9.342;2023-02-28T07:44:45;16.67;;;9.90;;
21743;SDS011;11034;48.556;9.342;2023-02-28T15:02:33;15.18;;;9.50;;
21743;SDS011;11034;48.556;9.342;2023-02-28T15:05:10;13.65;;;9.00;;
21743;SDS011;11034;48.556;9.342;2023-02-28T15:07:49;14.70;;;8.65;;
21743;SDS011;11034;48.556;9.342;2023-02-28T15:10:30;13.23;;;9.35;;
21743;SDS011;11034;48.556;9.342;2023-02-28T15:12:59;16.08;;;10.20;;
21743;SDS011;11034;48.556;9.342;2023-02-28T15:15:33;14.63;;;8.35;;
21743;SDS011;11034;48.556;9.342;2023-02-28T15:18:30;18.92;;;11.55;;
21743;SDS011;11034;48.556;9.342;2023-02-28T15:21:04;12.63;;;7.78;;
21743;SDS011;11034;48.556;9.342;2023-02-28T15:23:35;13.25;;;8.57;;
21743;SDS011;11034;48.556;9.342;2023-02-28T15:26:04;11.98;;;8.15;;
21743;SDS011;11034;48.556;9.342;2023-02-28T15:28:32;12.93;;;8.75;;
21743;SDS011;11034;48.556;9.342;2023-02-28T15:31:03;13.07;;;8.65;;
21743;SDS011;11034;48.556;9.342;2023-02-28T15:33:52;15.80;;;9.57;;
21743;SDS011;11034;48.556;9.342;2023-02-28T15:36:23;15.23;;;8.82;;
21743;SDS011;11034;48.556;9.342;2023-02-28T15:38:59;14.13;;;8.20;;
21743;SDS011;11034;48.556;9.342;2023-02-28T15:41:41;11.82;;;8.35;;
21743;SDS011;11034;48.556;9.342;2023-02-28T15:46:57;16.63;;;9.15;;
21743;SDS011;11034;48.556;9.342;2023-02-28T15:49:32;15.90;;;8.57;;
21743;SDS011;11034;48.556;9.342;2023-02-28T15:52:11;16.30;;;8.95;;
21743;SDS011;11034;48.556;9.342;2023-02-28T15:54:43;18.45;;;8.98;;
21743;SDS011;11034;48.556;9.342;2023-02-28T15:57:13;12.45;;;8.25;;
21743;SDS011;11034;48.556;9.342;2023-02-28T15:59:48;12.77;;;8.40;;
21743;SDS011;11034;48.556;9.342;2023-02-28T16:02:20;19.98;;;9.25;;
21743;SDS011;11034;48.556;9.342;2023-02-28T16:04:58;14.75;;;9.60;;
21743;SDS011;11034;48.556;9.342;2023-02-28T16:07:44;17.65;;;9.35;;
21743;SDS011;11034;48.556;9.342;2023-02-28T16:10:14;15.40;;;9.00;;
21743;SDS011;11034;48.556;9.342;2023-02-28T16:12:45;17.20;;;9.00;;
21743;SDS011;11034;48.556;9.342;2023-02-28T16:15:17;15.48;;;9.45;;
21743;SDS011;11034;48.556;9.342;2023-02-28T16:17:46;14.23;;;8.90;;
21743;SDS011;11034;48.556;9.342;2023-02-28T16:20:16;13.07;;;8.18;;
21743;SDS011;11034;48.556;9.342;2023-02-28T16:22:46;13.57;;;9.38;;
21743;SDS011;11034;48.556;9.342;2023-02-28T16:25:15;17.42;;;9.88;;
21743;SDS011;11034;48.556;9.342;2023-02-28T16:27:45;16.02;;;9.25;;
21743;SDS011;11034;48.556;9.342;2023-02-28T16:30:17;14.07;;;9.30;;
21743;SDS011;11034;48.556;9.342;2023-02-28T16:32:48;17.27;;;9.65;;
21743;SDS011;11034;48.556;9.342;2023-02-28T16:35:18;18.13;;;9.88;;
21743;SDS011;11034;48.556;9.342;2023-02-28T16:37:47;15.63;;;9.52;;
21743;SDS011;11034;48.556;9.342;2023-02-28T16:40:18;13.30;;;8.38;;
21743;SDS011;11034;48.556;9.342;2023-02-28T16:42:48;16.00;;;9.48;;
21743;SDS011;11034;48.556;9.342;2023-02-28T16:45:19;14.60;;;9.18;;
21743;SDS011;11034;48.556;9.342;2023-02-28T16:47:49;14.50;;;9.10;;
21743;SDS011;11034;48.556;9.342;2023-02-28T16:50:19;15.70;;;9.85;;
21743;SDS011;11034;48.556;9.342;2023-02-28T16:52:49;19.10;;;11.95;;
21743;SDS011;11034;48.556;9.342;2023-02-28T16:55:18;19.20;;;11.65;;
21743;SDS011;11034;48.556;9.342;2023-02-28T16:57:52;24.23;;;12.65;;
21743;SDS011;11034;48.556;9.342;2023-02-28T17:00:25;17.45;;;10.65;;
21743;SDS011;11034;48.556;9.342;2023-02-28T17:02:53;20.48;;;11.30;;
21743;SDS011;11034;48.556;9.342;2023-02-28T17:05:23;19.63;;;10.65;;
21743;SDS011;11034;48.556;9.342;2023-02-28T17:07:51;22.80;;;12.75;;
21743;SDS011;11034;48.556;9.342;2023-02-28T17:10:20;28.73;;;14.48;;
21743;SDS011;11034;48.556;9.342;2023-02-28T17:12:51;20.67;;;12.07;;
21743;SDS011;11034;48.556;9.342;2023-02-28T17:15:28;17.98;;;11.23;;
21743;SDS011;11034;48.556;9.342;2023-02-28T17:17:57;22.25;;;11.77;;
21743;SDS011;11034;48.556;9.342;2023-02-28T17:20:26;18.52;;;11.77;;
21743;SDS011;11034;48.556;9.342;2023-02-28T17:22:55;18.13;;;11.23;;
21743;SDS011;11034;48.556;9.342;2023-02-28T17:25:23;20.63;;;11.07;;
21743;SDS011;11034;48.556;9.342;2023-02-28T17:27:51;20.10;;;11.38;;
21743;SDS011;11034;48.556;9.342;2023-02-28T17:30:20;17.55;;;10.93;;
21743;SDS011;11034;48.556;9.342;2023-02-28T17:32:50;23.25;;;11.50;;
21743;SDS011;11034;48.556;9.342;2023-02-28T17:35:18;16.52;;;10.60;;
21743;SDS011;11034;48.556;9.342;2023-02-28T17:37:47;20.30;;;10.70;;
21743;SDS011;11034;48.556;9.342;2023-02-28T17:40:16;22.10;;;11.52;;
21743;SDS011;11034;48.556;9.342;2023-02-28T17:42:46;20.00;;;11.98;;
21743;SDS011;11034;48.556;9.342;2023-02-28T17:45:14;24.98;;;14.10;;
21743;SDS011;11034;48.556;9.342;2023-02-28T17:47:43;23.52;;;12.57;;
21743;SDS011;11034;48.556;9.342;2023-02-28T17:50:15;21.00;;;12.02;;
21743;SDS011;11034;48.556;9.342;2023-02-28T17:52:45;21.33;;;12.68;;
21743;SDS011;11034;48.556;9.342;2023-02-28T17:55:16;21.77;;;12.38;;
21743;SDS011;11034;48.556;9.342;2023-02-28T17:57:45;22.92;;;12.05;;
21743;SDS011;11034;48.556;9.342;2023-02-28T18:00:14;17.55;;;11.13;;
21743;SDS011;11034;48.556;9.342;2023-02-28T18:02:43;22.15;;;12.35;;
21743;SDS011;11034;48.556;9.342;2023-02-28T18:05:12;20.10;;;11.52;;
21743;SDS011;11034;48.556;9.342;2023-02-28T18:07:40;19.85;;;11.52;;
21743;SDS011;11034;48.556;9.342;2023-02-28T18:10:11;19.73;;;11.88;;
21743;SDS011;11034;48.556;9.342;2023-02-28T18:12:42;21.58;;;12.35;;
21743;SDS011;11034;48.556;9.342;2023-02-28T18:15:10;21.42;;;12.25;;
21743;SDS011;11034;48.556;9.342;2023-02-28T18:17:38;20.00;;;12.32;;
21743;SDS011;11034;48.556;9.342;2023-02-28T18:20:06;23.77;;;12.95;;
21743;SDS011;11034;48.556;9.342;2023-02-28T18:22:35;21.70;;;13.15;;
21743;SDS011;11034;48.556;9.342;2023-02-28T18:25:04;26.75;;;13.32;;
21743;SDS011;11034;48.556;9.342;2023-02-28T18:27:35;21.80;;;13.40;;
21743;SDS011;11034;48.556;9.342;2023-02-28T18:30:04;22.55;;;12.70;;
21743;SDS011;11034;48.556;9.342;2023-02-28T18:32:32;22.30;;;12.60;;
21743;SDS011;11034;48.556;9.342;2023-02-28T18:35:00;21.35;;;12.13;;
21743;SDS011;11034;48.556;9.342;2023-02-28T18:37:28;20.67;;;12.15;;
21743;SDS011;11034;48.556;9.342;2023-02-28T18:39:56;23.50;;;13.52;;
21743;SDS011;11034;48.556;9.342;2023-02-28T18:42:24;25.67;;;13.55;;
21743;SDS011;11034;48.556;9.342;2023-02-28T18:44:54;22.98;;;12.60;;
21743;SDS011;11034;48.556;9.342;2023-02-28T18:47:22;21.42;;;12.95;;
21743;SDS011;11034;48.556;9.342;2023-02-28T18:49:51;23.67;;;13.30;;
21743;SDS011;11034;48.556;9.342;2023-02-28T18:52:19;22.15;;;12.50;;
21743;SDS011;11034;48.556;9.342;2023-02-28T18:54:48;23.88;;;13.35;;
21743;SDS011;11034;48.556;9.342;2023-02-28T18:57:15;22.33;;;13.15;;
21743;SDS011;11034;48.556;9.342;2023-02-28T18:59:43;22.38;;;13.52;;
21743;SDS011;11034;48.556;9.342;2023-02-28T19:02:13;22.80;;;12.82;;
21743;SDS011;11034;48.556;9.342;2023-02-28T19:04:41;27.20;;;14.45;;
21743;SDS011;11034;48.556;9.342;2023-02-28T19:07:09;26.55;;;14.20;;
21743;SDS011;11034;48.556;9.342;2023-02-28T19:09:37;24.70;;;14.15;;
21743;SDS011;11034;48.556;9.342;2023-02-28T19:12:05;24.42;;;13.65;;
21743;SDS011;11034;48.556;9.342;2023-02-28T19:14:33;25.95;;;13.10;;
21743;SDS011;11034;48.556;9.342;2023-02-28T19:17:01;22.85;;;13.27;;
21743;SDS011;11034;48.556;9.342;2023-02-28T19:19:32;26.15;;;14.63;;
21743;SDS011;11034;48.556;9.342;2023-02-28T19:22:00;26.77;;;14.98;;
21743;SDS011;11034;48.556;9.342;2023-02-28T19:24:29;26.27;;;14.88;;
21743;SDS011;11034;48.556;9.342;2023-02-28T19:26:58;26.33;;;14.63;;
21743;SDS011;11034;48.556;9.342;2023-02-28T19:29:26;26.48;;;14.15;;
21743;SDS011;11034;48.556;9.342;2023-02-28T19:31:54;22.50;;;14.82;;
21743;SDS011;11034;48.556;9.342;2023-02-28T19:34:22;25.75;;;14.10;;
21743;SDS011;11034;48.556;9.342;2023-02-28T19:36:51;26.48;;;14.00;;
21743;SDS011;11034;48.556;9.342;2023-02-28T19:39:19;26.75;;;15.18;;
21743;SDS011;11034;48.556;9.342;2023-02-28T19:41:47;25.63;;;14.48;;
21743;SDS011;11034;48.556;9.342;2023-02-28T19:44:15;29.88;;;16.27;;
21743;SDS011;11034;48.556;9.342;2023-02-28T19:46:43;32.30;;;18.02;;
21743;SDS011;11034;48.556;9.342;2023-02-28T19:49:11;28.33;;;16.20;;
21743;SDS011;11034;48.556;9.342;2023-02-28T19:51:39;36.25;;;18.38;;
21743;SDS011;11034;48.556;9.342;2023-02-28T19:54:11;98.00;;;40.25;;
21743;SDS011;11034;48.556;9.342;2023-02-28T19:56:39;73.20;;;31.67;;
21743;SDS011;11034;48.556;9.342;2023-02-28T19:59:07;48.75;;;23.63;;
21743;SDS011;11034;48.556;9.342;2023-02-28T20:01:47;44.53;;;23.40;;
21743;SDS011;11034;48.556;9.342;2023-02-28T20:04:15;46.97;;;24.83;;
21743;SDS011;11034;48.556;9.342;2023-02-28T20:06:43;48.67;;;22.65;;
21743;SDS011;11034;48.556;9.342;2023-02-28T20:09:12;73.10;;;32.60;;
21743;SDS011;11034;48.556;9.342;2023-02-28T20:11:41;95.25;;;40.65;;
21743;SDS011;11034;48.556;9.342;2023-02-28T20:14:10;122.95;;;51.97;;
21743;SDS011;11034;48.556;9.342;2023-02-28T20:16:39;160.05;;;62.58;;
21743;SDS011;11034;48.556;9.342;2023-02-28T20:19:08;44.03;;;22.83;;
21743;SDS011;11034;48.556;9.342;2023-02-28T20:21:36;43.55;;;21.80;;
21743;SDS011;11034;48.556;9.342;2023-02-28T20:24:04;37.10;;;19.70;;
21743;SDS011;11034;48.556;9.342;2023-02-28T20:26:34;32.42;;;18.25;;
21743;SDS011;11034;48.556;9.342;2023-02-28T20:29:02;35.05;;;19.02;;
21743;SDS011;11034;48.556;9.342;2023-02-28T20:31:31;36.03;;;18.67;;
21743;SDS011;11034;48.556;9.342;2023-02-28T20:33:59;30.55;;;17.38;;
21743;SDS011;11034;48.556;9.342;2023-02-28T20:36:27;40.45;;;21.58;;
21743;SDS011;11034;48.556;9.342;2023-02-28T20:38:56;39.15;;;21.83;;
21743;SDS011;11034;48.556;9.342;2023-02-28T20:41:25;44.17;;;25.38;;
21743;SDS011;11034;48.556;9.342;2023-02-28T20:43:56;42.17;;;22.67;;
21743;SDS011;11034;48.556;9.342;2023-02-28T20:46:27;44.17;;;24.60;;
21743;SDS011;11034;48.556;9.342;2023-02-28T20:48:56;37.63;;;19.58;;
21743;SDS011;11034;48.556;9.342;2023-02-28T20:51:24;34.80;;;18.38;;
21743;SDS011;11034;48.556;9.342;2023-02-28T20:53:52;39.10;;;19.45;;
21743;SDS011;11034;48.556;9.342;2023-02-28T20:56:21;35.67;;;18.42;;
21743;SDS011;11034;48.556;9.342;2023-02-28T20:58:50;30.95;;;16.75;;
